createdAt,value
2022-12-14T11:39:49.805Z,28.27
2022-12-14T11:42:18.969Z,28.45
2022-12-14T11:44:47.356Z,25.17
2022-12-14T11:47:15.580Z,24.40
2022-12-14T11:49:42.748Z,27.73
2022-12-14T11:52:13.136Z,26.55
2022-12-14T11:54:49.689Z,27.45
2022-12-14T11:57:17.507Z,24.85
2022-12-14T11:59:55.913Z,28.17
2022-12-14T12:02:27.049Z,29.25
2022-12-14T12:04:59.999Z,25.08
2022-12-14T12:07:30.241Z,21.58
2022-12-14T12:10:01.415Z,24.75
2022-12-14T12:12:28.802Z,25.48
2022-12-14T12:14:56.831Z,28.30
2022-12-14T12:17:38.171Z,23.75
2022-12-14T12:20:10.100Z,28.08
2022-12-14T12:22:38.229Z,25.45
2022-12-14T12:25:25.867Z,29.23
2022-12-14T12:27:59.947Z,26.98
2022-12-14T12:30:29.274Z,28.15
2022-12-14T12:32:58.460Z,26.60
2022-12-14T12:35:47.480Z,25.98
2022-12-14T12:38:20.954Z,28.13
2022-12-14T12:40:55.712Z,28.58
2022-12-14T12:43:37.741Z,29.90
2022-12-14T12:46:28.203Z,27.33
2022-12-14T12:49:00.680Z,26.77
2022-12-14T12:51:30.088Z,28.40
2022-12-14T12:53:59.862Z,28.33
2022-12-14T12:56:40.611Z,28.02
2022-12-14T12:59:08.136Z,29.92
2022-12-14T13:01:38.530Z,26.70
2022-12-14T13:04:13.579Z,26.25
2022-12-14T13:06:43.688Z,30.23
2022-12-14T13:09:17.232Z,27.98
2022-12-14T13:11:44.748Z,29.92
2022-12-14T13:14:38.195Z,31.52
2022-12-14T13:17:07.184Z,27.60
2022-12-14T13:19:50.792Z,27.98
2022-12-14T13:22:21.895Z,33.80
2022-12-14T13:24:57.000Z,28.33
2022-12-14T13:27:32.449Z,28.75
2022-12-14T13:30:02.693Z,24.20
2022-12-14T13:32:38.720Z,23.30
2022-12-14T13:35:05.937Z,29.17
2022-12-14T13:37:54.185Z,23.95
2022-12-14T13:40:36.303Z,29.58
2022-12-14T13:43:15.235Z,30.30
2022-12-14T13:45:44.713Z,27.08
2022-12-14T13:48:24.351Z,30.00
2022-12-14T13:51:02.294Z,28.25
2022-12-14T13:53:38.238Z,22.90
2022-12-14T13:56:05.735Z,28.45
2022-12-14T13:58:42.908Z,28.00
2022-12-14T14:01:14.530Z,29.42
2022-12-14T14:03:43.068Z,29.65
2022-12-14T14:06:13.629Z,25.80
2022-12-14T14:08:42.741Z,32.38
2022-12-14T14:11:36.317Z,31.35
2022-12-14T14:14:04.796Z,26.52
2022-12-14T14:17:04.559Z,28.63
2022-12-14T14:19:36.133Z,25.90
2022-12-14T14:22:25.750Z,27.75
2022-12-14T14:24:56.676Z,26.23
2022-12-14T14:27:35.259Z,25.15
2022-12-14T14:30:02.475Z,32.92
2022-12-14T14:32:42.972Z,29.95
2022-12-14T14:35:35.889Z,29.30
2022-12-14T14:38:10.805Z,30.85
2022-12-14T14:41:14.065Z,33.67
2022-12-14T14:43:30.884Z,33.55
2022-12-14T14:46:06.159Z,31.80
2022-12-14T14:48:39.997Z,33.67
2022-12-14T14:51:07.196Z,33.03
2022-12-14T14:53:38.298Z,33.95
2022-12-14T14:56:24.350Z,32.20
2022-12-14T14:58:51.594Z,33.53
2022-12-14T15:01:25.019Z,37.30
2022-12-14T15:03:52.467Z,37.58
2022-12-14T15:06:22.780Z,33.00
2022-12-14T15:09:08.623Z,39.53
2022-12-14T15:11:56.028Z,40.00
2022-12-14T15:14:33.279Z,36.90
2022-12-14T15:17:11.907Z,36.30
2022-12-14T15:19:39.261Z,39.08
2022-12-14T15:22:07.839Z,34.38
2022-12-14T15:24:39.120Z,38.50
2022-12-14T15:27:52.389Z,44.65
2022-12-14T15:30:19.698Z,39.20
2022-12-14T15:32:52.226Z,39.85
2022-12-14T15:35:22.359Z,39.85
2022-12-14T15:37:59.704Z,38.95
2022-12-14T15:40:30.272Z,40.53
2022-12-14T15:42:58.697Z,43.33
2022-12-14T15:45:27.726Z,41.10
2022-12-14T15:47:54.987Z,40.55
2022-12-14T15:50:27.129Z,43.15
2022-12-14T15:53:00.163Z,42.28
2022-12-14T15:55:35.104Z,45.90
2022-12-14T15:58:17.337Z,36.95
2022-12-14T16:00:46.832Z,38.30
2022-12-14T16:03:20.136Z,43.15
2022-12-14T16:05:47.489Z,37.55
2022-12-14T16:08:15.066Z,34.28
2022-12-14T16:10:42.580Z,38.67
2022-12-14T16:13:21.818Z,39.55
2022-12-14T16:15:49.443Z,36.30
2022-12-14T16:18:18.542Z,37.70
2022-12-14T16:20:47.047Z,39.85
2022-12-14T16:23:15.279Z,39.20
2022-12-14T16:25:53.498Z,39.25
2022-12-14T16:28:21.224Z,37.95
2022-12-14T16:31:17.773Z,43.53
2022-12-14T16:33:45.100Z,37.55
2022-12-14T16:36:25.469Z,37.38
2022-12-14T16:39:01.240Z,42.38
2022-12-14T16:41:38.149Z,44.88
2022-12-14T16:44:06.404Z,39.83
2022-12-14T16:46:33.618Z,42.10
2022-12-14T16:49:19.847Z,46.17
2022-12-14T16:52:14.507Z,46.63
2022-12-14T16:54:35.006Z,42.92
2022-12-14T16:57:04.406Z,43.38
2022-12-14T16:59:42.053Z,39.30
2022-12-14T17:02:33.525Z,51.22
2022-12-14T17:05:02.358Z,37.25
2022-12-14T17:07:30.808Z,39.25
2022-12-14T17:09:58.097Z,42.22
2022-12-14T17:12:26.164Z,40.05
2022-12-14T17:14:53.920Z,40.72
2022-12-14T17:17:49.310Z,49.25
2022-12-14T17:20:27.286Z,42.22
2022-12-14T17:22:56.393Z,38.47
2022-12-14T17:25:23.543Z,38.05
2022-12-14T17:27:50.693Z,39.55
2022-12-14T17:30:20.011Z,40.20
2022-12-14T17:32:47.253Z,38.25
2022-12-14T17:35:18.556Z,38.75
2022-12-14T17:37:45.755Z,34.63
2022-12-14T17:40:13.115Z,34.28
2022-12-14T17:42:41.852Z,30.90
2022-12-14T17:45:18.279Z,32.22
2022-12-14T17:47:45.442Z,33.58
2022-12-14T17:50:16.942Z,29.70
2022-12-14T17:52:44.407Z,30.20
2022-12-14T17:55:17.317Z,27.60
2022-12-14T17:57:44.490Z,27.95
2022-12-14T18:00:37.622Z,30.10
2022-12-14T18:03:05.575Z,25.83
2022-12-14T18:05:33.347Z,27.13
2022-12-14T18:08:00.545Z,28.52
2022-12-14T18:10:27.773Z,27.52
2022-12-14T18:12:55.575Z,30.35
2022-12-14T18:15:25.231Z,28.33
2022-12-14T18:17:52.440Z,28.65
2022-12-14T18:20:21.554Z,33.70
2022-12-14T18:22:50.015Z,31.00
2022-12-14T18:25:30.130Z,31.63
2022-12-14T18:27:57.361Z,34.78
2022-12-14T18:30:24.499Z,28.80
2022-12-14T18:32:51.688Z,33.22
2022-12-14T18:35:19.906Z,30.67
2022-12-14T18:37:49.469Z,26.60
2022-12-14T18:40:18.112Z,30.30
2022-12-14T18:42:45.948Z,35.75
2022-12-14T18:45:17.507Z,31.10
2022-12-14T18:47:45.031Z,30.75
2022-12-14T18:50:13.301Z,28.92
2022-12-14T18:52:40.491Z,31.65
2022-12-14T18:55:14.972Z,35.60
2022-12-14T18:57:43.169Z,36.28
2022-12-14T19:00:12.962Z,34.60
2022-12-14T19:02:41.205Z,32.75
2022-12-14T19:05:08.851Z,30.02
2022-12-14T19:07:35.973Z,30.30
2022-12-14T19:10:03.168Z,29.77
2022-12-14T19:12:30.322Z,29.58
2022-12-14T19:14:57.514Z,27.67
2022-12-14T19:17:24.683Z,28.45
2022-12-14T19:19:52.141Z,27.27
2022-12-14T19:22:19.468Z,22.55
2022-12-14T19:24:52.110Z,22.63
2022-12-14T19:27:43.955Z,23.38
2022-12-14T19:30:07.814Z,21.15
2022-12-14T19:32:35.055Z,23.58
2022-12-14T19:35:02.639Z,22.25
2022-12-14T19:37:29.775Z,22.65
2022-12-14T19:39:59.420Z,21.08
2022-12-14T19:42:26.650Z,21.75
2022-12-14T19:44:53.917Z,20.75
2022-12-14T19:47:21.109Z,20.83
2022-12-14T19:49:48.278Z,22.67
2022-12-14T19:52:15.413Z,20.88
2022-12-14T19:54:42.563Z,23.63
2022-12-14T19:57:09.711Z,23.23
2022-12-14T19:59:36.849Z,19.85
2022-12-14T20:02:04.219Z,22.42
2022-12-14T20:04:31.528Z,20.80
2022-12-14T20:06:58.709Z,22.23
2022-12-14T20:09:25.926Z,22.30
2022-12-14T20:11:53.056Z,20.88
2022-12-14T20:14:20.310Z,19.08
2022-12-14T20:16:47.628Z,18.88
2022-12-14T20:19:14.896Z,17.05
2022-12-14T20:21:42.296Z,17.60
2022-12-14T20:24:10.691Z,15.95
2022-12-14T20:26:38.302Z,18.73
2022-12-14T20:29:06.049Z,17.65
2022-12-14T20:31:33.834Z,16.40
2022-12-14T20:34:02.007Z,16.42
2022-12-14T20:36:29.954Z,15.93
2022-12-14T20:38:58.140Z,17.45
2022-12-14T20:41:25.818Z,13.18
2022-12-14T20:43:53.175Z,14.40
2022-12-14T20:46:29.725Z,15.80
2022-12-14T20:48:57.666Z,13.77
2022-12-14T20:51:24.999Z,14.88
2022-12-14T20:53:52.198Z,12.63
2022-12-14T20:56:20.778Z,13.80
2022-12-14T20:58:48.443Z,15.63
2022-12-14T21:01:16.676Z,14.32
2022-12-14T21:03:46.898Z,14.13
2022-12-14T21:06:18.891Z,12.18
2022-12-14T21:09:01.811Z,15.85
2022-12-14T21:11:48.383Z,14.23
2022-12-14T21:14:15.678Z,13.27
2022-12-14T21:16:43.135Z,13.27
2022-12-14T21:19:12.180Z,14.35
2022-12-14T21:21:39.882Z,14.00
2022-12-14T21:24:08.796Z,14.27
2022-12-14T21:26:36.861Z,13.15
2022-12-14T21:29:04.801Z,13.65
2022-12-14T21:31:32.014Z,15.55
2022-12-14T21:33:59.268Z,17.33
2022-12-14T21:36:26.392Z,14.32
2022-12-14T21:38:54.388Z,13.75
2022-12-14T21:41:40.172Z,14.95
2022-12-14T21:44:07.664Z,15.05
2022-12-14T21:46:35.127Z,14.45
2022-12-14T21:49:02.392Z,14.40
2022-12-14T21:51:29.667Z,14.38
2022-12-14T21:54:00.219Z,15.43
2022-12-14T21:56:47.494Z,15.48
2022-12-14T21:59:15.789Z,13.98
2022-12-14T22:01:43.365Z,14.32
2022-12-14T22:04:10.887Z,15.50
2022-12-14T22:06:38.061Z,16.27
2022-12-14T22:09:05.446Z,15.05
2022-12-14T22:11:32.815Z,17.50
2022-12-14T22:14:02.333Z,13.55
2022-12-14T22:16:30.880Z,17.77
2022-12-14T22:19:01.684Z,16.60
2022-12-14T22:21:29.372Z,15.80
2022-12-14T22:23:56.560Z,16.92
2022-12-14T22:26:24.464Z,17.88
2022-12-14T22:28:54.836Z,15.32
2022-12-14T22:31:22.032Z,15.38
2022-12-14T22:33:50.186Z,16.05
2022-12-14T22:36:20.533Z,15.70
2022-12-14T22:38:47.716Z,17.77
2022-12-14T22:41:15.771Z,19.90
2022-12-14T22:43:44.467Z,16.08
2022-12-14T22:46:12.975Z,19.83
2022-12-14T22:48:40.589Z,19.33
2022-12-14T22:51:12.153Z,19.00
2022-12-14T22:53:39.653Z,18.88
2022-12-14T22:56:16.107Z,19.42
2022-12-14T22:58:44.942Z,20.42
2022-12-14T23:01:19.323Z,20.45
2022-12-14T23:03:47.297Z,19.70
2022-12-14T23:06:17.455Z,19.05
2022-12-14T23:09:04.211Z,19.08
2022-12-14T23:11:50.418Z,19.33
2022-12-14T23:14:36.505Z,21.80
2022-12-14T23:17:22.657Z,20.20
2022-12-14T23:20:08.755Z,20.10
2022-12-14T23:22:54.722Z,19.90
2022-12-14T23:25:40.734Z,19.77
2022-12-14T23:28:26.741Z,20.75
2022-12-14T23:31:12.749Z,19.65
2022-12-14T23:33:58.660Z,20.67
2022-12-14T23:36:44.551Z,18.80
2022-12-14T23:39:30.452Z,21.83
2022-12-14T23:42:16.487Z,19.73
2022-12-14T23:45:02.358Z,22.45
2022-12-14T23:47:49.258Z,23.63
2022-12-14T23:50:35.775Z,25.98
2022-12-14T23:53:28.212Z,28.08
2022-12-14T23:56:14.466Z,28.40
2022-12-14T23:59:00.486Z,29.27
